Time;durP1;ratioP1;P1;durP2;ratioP2;P2;SDS_P1;SDS_P2;PMS_P1;PMS_P2;Temp;Humidity;BMP_temperature;BMP_pressure;BME280_temperature;BME280_humidity;BME280_pressure;Samples;Min_cycle;Max_cycle;Signal;HPM_P1;HPM_P2
2021/11/10 00:00:21;;;;;;;12.00;9.53;;;6.30;37.80;;;;;;10344742;28;20231;-71
2021/11/10 00:05:24;;;;;;;9.73;8.17;;;6.10;37.70;;;;;;10340899;28;20235;-71
2021/11/10 00:10:27;;;;;;;9.80;8.53;;;6.00;37.60;;;;;;10341779;28;20231;-71
2021/11/10 00:15:32;;;;;;;10.07;8.87;;;6.00;37.80;;;;;;10342430;28;20230;-71
2021/11/10 00:20:35;;;;;;;8.63;7.43;;;6.00;37.90;;;;;;10337621;28;20256;-71
2021/11/10 00:25:38;;;;;;;10.07;8.80;;;6.00;37.70;;;;;;10341029;28;20322;-71
2021/11/10 00:30:43;;;;;;;7.93;7.13;;;6.00;37.60;;;;;;10339557;28;20237;-71
2021/11/10 00:35:46;;;;;;;9.70;8.53;;;5.90;37.50;;;;;;10346871;28;20238;-73
2021/11/10 00:40:50;;;;;;;10.10;8.80;;;5.80;37.50;;;;;;10342593;28;20233;-73
2021/11/10 00:45:54;;;;;;;8.63;7.83;;;5.70;37.40;;;;;;10339923;28;20599;-72
2021/11/10 00:50:57;;;;;;;9.13;8.23;;;5.60;37.30;;;;;;10344061;28;20229;-73
2021/11/10 00:56:01;;;;;;;9.10;7.63;;;5.50;37.60;;;;;;10336540;28;20231;-73
2021/11/10 01:01:05;;;;;;;8.30;7.47;;;5.40;37.90;;;;;;10343239;28;20230;-72
2021/11/10 01:06:08;;;;;;;10.20;8.53;;;5.30;38.30;;;;;;10341855;28;20230;-73
2021/11/10 01:11:12;;;;;;;7.97;6.77;;;5.30;38.50;;;;;;10344344;28;20581;-73
2021/11/10 01:16:16;;;;;;;8.60;7.70;;;5.30;38.40;;;;;;10341174;28;20705;-72
2021/11/10 01:21:19;;;;;;;9.33;7.20;;;5.30;38.60;;;;;;10347441;28;20230;-71
2021/11/10 01:26:23;;;;;;;7.97;7.13;;;5.40;38.50;;;;;;10345770;28;20241;-71
2021/11/10 01:31:27;;;;;;;7.17;6.57;;;5.40;38.50;;;;;;10350784;28;20229;-71
2021/11/10 01:36:31;;;;;;;7.27;6.57;;;5.40;38.50;;;;;;10346961;28;20234;-71
2021/11/10 01:41:40;;;;;;;7.60;6.80;;;5.50;38.50;;;;;;10350928;28;20222;-71
2021/11/10 01:46:45;;;;;;;7.13;6.50;;;5.50;38.40;;;;;;10349500;28;20321;-71
2021/11/10 01:51:52;;;;;;;6.80;6.10;;;5.50;38.20;;;;;;10349101;28;20223;-71
2021/11/10 01:56:55;;;;;;;7.87;6.90;;;5.50;38.20;;;;;;10350374;28;20219;-71
2021/11/10 02:02:02;;;;;;;7.70;6.90;;;5.40;38.10;;;;;;10346872;28;20230;-71
2021/11/10 02:07:07;;;;;;;6.77;6.17;;;5.40;38.20;;;;;;10349512;28;20305;-71
2021/11/10 02:12:11;;;;;;;8.20;7.40;;;5.40;38.20;;;;;;10342364;28;20332;-71
2021/11/10 02:17:17;;;;;;;9.17;7.00;;;5.40;38.20;;;;;;10349243;28;20241;-71
2021/11/10 02:22:22;;;;;;;7.47;6.77;;;5.40;38.20;;;;;;10344677;28;20227;-71
2021/11/10 02:27:33;;;;;;;6.63;6.00;;;5.30;38.10;;;;;;10349959;28;20238;-71
2021/11/10 02:32:36;;;;;;;7.53;6.47;;;5.30;38.10;;;;;;10342554;28;20241;-71
2021/11/10 02:37:43;;;;;;;6.47;5.83;;;5.30;38.20;;;;;;10348878;28;20611;-71
2021/11/10 02:42:47;;;;;;;6.47;5.63;;;5.20;38.20;;;;;;10349854;28;20624;-71
2021/11/10 02:47:50;;;;;;;6.23;5.70;;;5.20;38.30;;;;;;10342981;28;20222;-71
2021/11/10 02:52:55;;;;;;;6.10;5.50;;;5.20;38.20;;;;;;10342488;28;20242;-71
2021/11/10 02:58:01;;;;;;;5.80;5.27;;;5.20;38.40;;;;;;10348401;28;20250;-70
2021/11/10 03:03:05;;;;;;;7.97;6.60;;;5.20;38.40;;;;;;10342257;28;20242;-71
2021/11/10 03:08:09;;;;;;;6.30;5.70;;;5.10;38.20;;;;;;10345046;28;20235;-71
2021/11/10 03:13:12;;;;;;;8.97;5.60;;;5.10;38.30;;;;;;10340182;28;20226;-71
2021/11/10 03:18:16;;;;;;;6.47;5.87;;;5.10;38.30;;;;;;10343594;28;20720;-71
2021/11/10 03:23:21;;;;;;;6.73;5.77;;;5.10;38.20;;;;;;10347541;28;20223;-71
2021/11/10 03:28:25;;;;;;;6.43;5.63;;;5.10;38.30;;;;;;10340340;28;20711;-71
2021/11/10 03:33:28;;;;;;;5.87;5.33;;;5.00;38.00;;;;;;10344141;28;20226;-71
2021/11/10 03:38:32;;;;;;;5.77;5.17;;;4.90;38.10;;;;;;10343368;28;20222;-71
2021/11/10 03:43:36;;;;;;;4.97;4.57;;;4.90;38.40;;;;;;10339138;28;20230;-70
2021/11/10 03:48:40;;;;;;;5.70;5.20;;;4.80;38.40;;;;;;10341642;28;20230;-71
2021/11/10 03:53:45;;;;;;;5.07;4.60;;;4.80;38.50;;;;;;10345308;28;20314;-70
2021/11/10 03:58:48;;;;;;;5.93;5.33;;;4.90;38.60;;;;;;10342034;28;20251;-71
2021/11/10 04:03:52;;;;;;;5.97;4.60;;;4.90;38.40;;;;;;10346369;28;20238;-71
2021/11/10 04:08:56;;;;;;;8.97;5.90;;;4.80;38.30;;;;;;10341690;28;20233;-70
2021/11/10 04:13:59;;;;;;;4.90;4.50;;;4.80;38.50;;;;;;10341177;28;20227;-71
2021/11/10 04:19:03;;;;;;;5.70;5.10;;;4.80;38.40;;;;;;10340953;28;20226;-70
2021/11/10 04:24:08;;;;;;;6.13;5.53;;;4.70;38.40;;;;;;10342376;28;20244;-70
2021/11/10 04:29:11;;;;;;;6.37;5.53;;;4.60;38.60;;;;;;10340139;28;20222;-71
2021/11/10 04:34:15;;;;;;;5.17;4.50;;;4.60;38.70;;;;;;10341314;28;20226;-71
2021/11/10 04:39:19;;;;;;;6.53;4.87;;;4.50;38.70;;;;;;10340047;28;20222;-71
2021/11/10 04:44:23;;;;;;;5.27;4.87;;;4.50;39.00;;;;;;10338406;28;20867;-70
2021/11/10 04:49:28;;;;;;;7.17;4.93;;;4.70;39.00;;;;;;10342747;28;20230;-71
2021/11/10 04:54:34;;;;;;;5.20;4.70;;;4.50;38.90;;;;;;10342831;28;20240;-71
2021/11/10 04:59:38;;;;;;;5.90;5.30;;;4.70;39.30;;;;;;10340689;28;20236;-71
2021/11/10 05:04:43;;;;;;;5.93;5.33;;;4.60;38.90;;;;;;10340948;28;20648;-71
2021/11/10 05:09:47;;;;;;;5.87;4.97;;;4.80;39.10;;;;;;10337012;28;20241;-71
2021/11/10 05:14:52;;;;;;;6.27;5.57;;;4.60;39.00;;;;;;10338886;28;20241;-71
2021/11/10 05:19:55;;;;;;;6.50;5.37;;;4.70;38.90;;;;;;10337710;28;20566;-71
2021/11/10 05:25:14;;;;;;;5.97;5.20;;;4.70;38.90;;;;;;10336670;28;20236;-67
2021/11/10 05:30:17;;;;;;;4.87;4.43;;;4.80;39.10;;;;;;10338032;28;20229;-67
2021/11/10 05:35:20;;;;;;;5.90;5.30;;;4.70;39.10;;;;;;10341703;28;20790;-68
2021/11/10 05:40:25;;;;;;;5.50;4.80;;;4.70;38.80;;;;;;10336681;28;20230;-70
2021/11/10 05:45:28;;;;;;;5.70;4.87;;;4.70;38.80;;;;;;10342563;28;20238;-71
2021/11/10 05:50:31;;;;;;;5.70;5.10;;;4.80;38.70;;;;;;10341102;28;20237;-71
2021/11/10 05:55:38;;;;;;;5.37;4.67;;;4.60;38.60;;;;;;10337108;28;20237;-71
2021/11/10 06:00:41;;;;;;;6.00;5.23;;;4.50;38.80;;;;;;10340397;28;20238;-71
2021/11/10 06:05:44;;;;;;;6.90;5.37;;;4.50;38.80;;;;;;10342853;28;20304;-71
2021/11/10 06:10:48;;;;;;;5.10;4.53;;;4.50;38.80;;;;;;10345600;28;20245;-71
2021/11/10 06:15:52;;;;;;;5.37;4.60;;;4.50;39.70;;;;;;10340775;28;20230;-71
2021/11/10 06:20:55;;;;;;;6.87;4.97;;;4.60;39.60;;;;;;10343558;28;20230;-72
2021/11/10 06:26:00;;;;;;;6.23;5.63;;;4.60;39.30;;;;;;10344815;28;20234;-71
2021/11/10 06:31:03;;;;;;;7.70;6.87;;;4.60;39.30;;;;;;10345999;28;20223;-71
2021/11/10 06:36:06;;;;;;;7.50;6.67;;;4.60;38.90;;;;;;10344312;28;20262;-67
2021/11/10 06:41:18;;;;;;;7.23;6.27;;;4.60;38.90;;;;;;10344541;28;20226;-71
2021/11/10 06:46:21;;;;;;;6.87;6.17;;;4.60;39.10;;;;;;10349226;28;20370;-72
2021/11/10 06:51:25;;;;;;;7.90;7.10;;;4.60;39.00;;;;;;10347861;28;20609;-70
2021/11/10 06:56:29;;;;;;;8.27;7.07;;;4.60;39.10;;;;;;10340552;28;20239;-71
2021/11/10 07:01:32;;;;;;;10.73;7.77;;;4.70;39.30;;;;;;10341402;28;20222;-70
2021/11/10 07:06:36;;;;;;;7.90;7.17;;;4.60;39.30;;;;;;10348301;28;20316;-69
2021/11/10 07:11:41;;;;;;;9.10;6.70;;;4.60;39.40;;;;;;10346784;28;20406;-69
2021/11/10 07:16:44;;;;;;;8.90;8.00;;;4.60;39.60;;;;;;10340774;28;20717;-69
2021/11/10 07:21:48;;;;;;;10.90;9.47;;;4.70;39.50;;;;;;10344220;28;20605;-70
2021/11/10 07:26:52;;;;;;;21.30;16.30;;;4.70;39.60;;;;;;10342180;28;20232;-70
2021/11/10 07:31:56;;;;;;;13.37;10.67;;;4.70;39.80;;;;;;10338695;28;20223;-69
2021/11/10 07:37:00;;;;;;;12.43;8.73;;;4.80;40.00;;;;;;10340598;28;20234;-71
2021/11/10 07:42:05;;;;;;;9.57;7.03;;;4.70;40.00;;;;;;10340072;28;20223;-70
2021/11/10 07:47:12;;;;;;;10.17;8.37;;;4.80;40.20;;;;;;10339538;28;20218;-71
2021/11/10 07:52:16;;;;;;;10.60;7.73;;;4.80;40.20;;;;;;10341095;28;20710;-71
2021/11/10 07:57:26;;;;;;;9.83;7.70;;;4.90;40.30;;;;;;10347371;28;20309;-70
2021/11/10 08:02:29;;;;;;;9.20;8.30;;;5.00;40.50;;;;;;10345809;28;20230;-71
2021/11/10 08:07:32;;;;;;;10.10;9.07;;;5.10;40.50;;;;;;10340307;28;20267;-70
2021/11/10 08:12:37;;;;;;;9.83;8.83;;;5.20;40.70;;;;;;10341216;28;20675;-70
2021/11/10 08:17:41;;;;;;;8.63;7.73;;;5.30;40.80;;;;;;10339277;28;20588;-67
2021/11/10 08:22:45;;;;;;;8.10;6.90;;;5.50;40.80;;;;;;10335778;28;20242;-69
2021/11/10 08:27:51;;;;;;;7.57;6.80;;;5.60;40.80;;;;;;10337748;28;20242;-69
2021/11/10 08:32:55;;;;;;;7.50;6.70;;;5.70;40.90;;;;;;10340073;28;20252;-69
2021/11/10 08:37:58;;;;;;;8.83;7.90;;;5.80;41.00;;;;;;10341101;28;20230;-67
2021/11/10 08:43:03;;;;;;;9.60;8.57;;;5.90;41.10;;;;;;10338420;28;20684;-68
2021/11/10 08:48:07;;;;;;;10.43;9.27;;;6.10;41.60;;;;;;10333363;28;20229;-67
2021/11/10 08:53:14;;;;;;;10.87;9.67;;;6.30;41.70;;;;;;10339138;28;20703;-68
2021/11/10 08:58:18;;;;;;;9.70;8.80;;;6.50;42.00;;;;;;10336355;28;20656;-67
2021/11/10 09:03:23;;;;;;;10.03;8.93;;;6.70;41.90;;;;;;10338182;28;20238;-70
2021/11/10 09:08:28;;;;;;;10.43;9.33;;;6.90;41.80;;;;;;10335861;28;20256;-70
2021/11/10 09:13:33;;;;;;;11.87;9.53;;;7.10;41.90;;;;;;10333156;28;20248;-68
2021/11/10 09:18:36;;;;;;;10.43;9.43;;;7.20;41.80;;;;;;10337760;28;20234;-70
2021/11/10 09:23:39;;;;;;;12.07;10.20;;;7.40;42.00;;;;;;10341072;28;20227;-71
2021/11/10 09:28:44;;;;;;;12.07;10.23;;;7.60;42.70;;;;;;10334591;28;20733;-71
2021/11/10 09:33:48;;;;;;;12.07;10.30;;;7.80;42.20;;;;;;10338350;28;20242;-71
2021/11/10 09:38:51;;;;;;;12.63;11.30;;;7.90;41.80;;;;;;10339499;28;20242;-71
2021/11/10 09:43:59;;;;;;;12.40;9.60;;;8.00;41.80;;;;;;10343118;28;20265;-71
2021/11/10 09:49:02;;;;;;;13.80;12.30;;;8.10;42.00;;;;;;10347074;28;20221;-70
2021/11/10 09:54:06;;;;;;;16.63;13.40;;;8.20;41.60;;;;;;10349828;28;20241;-71
2021/11/10 09:59:10;;;;;;;22.03;17.33;;;8.30;41.70;;;;;;10343585;28;20237;-70
2021/11/10 10:04:14;;;;;;;26.73;20.03;;;8.40;41.90;;;;;;10349831;28;20262;-70
2021/11/10 10:09:18;;;;;;;26.73;21.63;;;8.50;41.80;;;;;;10342641;28;20229;-70
2021/11/10 10:14:23;;;;;;;16.50;14.53;;;8.70;42.00;;;;;;10350240;28;20237;-70
2021/11/10 10:19:39;;;;;;;14.63;12.40;;;8.90;42.20;;;;;;10341741;28;20596;-70
2021/11/10 10:24:46;;;;;;;15.27;13.00;;;9.00;42.10;;;;;;10340460;28;20229;-70
2021/11/10 10:30:29;;;;;;;14.60;12.70;;;9.20;42.10;;;;;;10341593;28;20231;-71
2021/11/10 10:35:41;;;;;;;14.90;11.73;;;9.30;43.10;;;;;;10342592;28;20233;-70
2021/11/10 10:40:48;;;;;;;12.70;11.37;;;9.50;42.20;;;;;;10347690;28;20226;-67
2021/11/10 10:45:53;;;;;;;12.57;11.27;;;9.60;41.80;;;;;;10345937;28;20619;-67
2021/11/10 10:50:59;;;;;;;12.73;11.60;;;9.70;42.10;;;;;;10342363;28;20234;-70
2021/11/10 10:56:18;;;;;;;14.37;11.87;;;9.80;41.90;;;;;;10341652;28;20237;-70
2021/11/10 11:01:27;;;;;;;12.37;11.07;;;10.00;41.00;;;;;;10342464;28;20234;-70
2021/11/10 11:06:37;;;;;;;14.27;12.87;;;10.10;40.70;;;;;;10343137;28;20261;-70
2021/11/10 11:11:58;;;;;;;17.47;13.47;;;10.10;40.50;;;;;;10338465;28;20227;-70
2021/11/10 11:17:06;;;;;;;16.40;14.70;;;10.20;40.70;;;;;;10341556;28;20218;-70
2021/11/10 11:22:09;;;;;;;15.43;12.93;;;10.30;40.50;;;;;;10339931;28;20233;-70
2021/11/10 11:27:15;;;;;;;13.63;12.33;;;10.30;40.20;;;;;;10338879;28;20227;-70
2021/11/10 11:32:24;;;;;;;13.57;12.20;;;10.30;40.60;;;;;;10339411;28;20233;-70
2021/11/10 11:37:27;;;;;;;14.20;12.80;;;10.40;40.80;;;;;;10348499;28;20605;-70
2021/11/10 11:42:30;;;;;;;12.53;11.30;;;10.50;40.80;;;;;;10347679;28;20577;-70
2021/11/10 11:47:35;;;;;;;13.50;12.20;;;10.50;40.40;;;;;;10346121;28;20230;-71
2021/11/10 11:52:38;;;;;;;13.33;12.03;;;10.60;40.50;;;;;;10345293;28;20237;-71
2021/11/10 11:57:45;;;;;;;16.73;12.60;;;10.70;40.60;;;;;;10337064;28;20637;-70
2021/11/10 12:02:51;;;;;;;15.40;13.80;;;10.70;40.50;;;;;;10342180;28;20631;-70
2021/11/10 12:07:56;;;;;;;14.53;13.13;;;10.80;40.60;;;;;;10334746;28;20239;-71
2021/11/10 12:13:21;;;;;;;15.97;13.20;;;10.80;40.60;;;;;;10341559;28;20241;-70
2021/11/10 12:18:27;;;;;;;12.90;11.63;;;10.80;40.60;;;;;;10337997;28;20230;-71
2021/11/10 12:24:15;;;;;;;12.53;11.37;;;10.90;40.70;;;;;;10338203;28;20234;-71
2021/11/10 12:29:39;;;;;;;12.63;11.27;;;10.90;40.70;;;;;;10243138;28;20594;-68
2021/11/10 12:34:47;;;;;;;13.80;12.50;;;11.00;41.10;;;;;;10322796;28;20268;-68
2021/11/10 12:40:10;;;;;;;12.10;10.93;;;11.10;40.90;;;;;;10405803;22;20660;-76
2021/11/10 12:45:19;;;;;;;12.93;11.63;;;11.20;41.00;;;;;;10391876;28;20228;-75
2021/11/10 12:50:39;;;;;;;13.27;11.97;;;11.30;41.10;;;;;;10391181;28;20243;-75
2021/11/10 12:55:54;;;;;;;13.23;11.40;;;11.40;41.20;;;;;;10393991;28;20225;-77
2021/11/10 13:01:07;;;;;;;12.23;11.13;;;11.40;41.20;;;;;;10396191;28;20229;-76
2021/11/10 13:06:18;;;;;;;12.00;10.90;;;11.50;41.20;;;;;;10401364;28;20237;-78
2021/11/10 13:11:23;;;;;;;12.53;11.30;;;11.50;40.80;;;;;;10404105;28;20264;-80
2021/11/10 13:16:26;;;;;;;12.33;11.03;;;11.60;40.90;;;;;;10403084;28;20226;-77
2021/11/10 13:21:31;;;;;;;11.97;10.77;;;11.60;40.70;;;;;;10397845;28;20597;-74
2021/11/10 13:26:35;;;;;;;13.37;12.10;;;11.60;40.80;;;;;;10391029;28;20240;-74
2021/11/10 13:31:38;;;;;;;12.80;11.23;;;11.70;40.80;;;;;;10390526;28;20241;-74
2021/11/10 13:36:43;;;;;;;12.73;11.53;;;11.70;40.60;;;;;;10390773;28;20245;-73
2021/11/10 13:41:48;;;;;;;13.00;11.70;;;11.70;40.50;;;;;;10391481;28;20233;-74
2021/11/10 13:46:56;;;;;;;12.00;10.80;;;11.70;40.40;;;;;;10390384;28;20239;-75
2021/11/10 13:52:03;;;;;;;11.93;10.73;;;11.70;40.50;;;;;;10387000;28;20623;-75
2021/11/10 13:57:14;;;;;;;11.30;10.20;;;11.70;40.40;;;;;;10393776;28;20225;-75
2021/11/10 14:02:20;;;;;;;10.47;9.57;;;11.70;40.40;;;;;;10397259;28;20273;-74
2021/11/10 14:07:26;;;;;;;11.37;10.27;;;11.70;41.10;;;;;;10384681;28;20698;-76
2021/11/10 14:12:35;;;;;;;11.50;10.40;;;11.80;40.60;;;;;;10399970;28;20731;-76
2021/11/10 14:17:42;;;;;;;12.67;11.37;;;11.80;40.50;;;;;;10403031;28;20713;-78
2021/11/10 14:22:56;;;;;;;11.93;10.83;;;11.80;40.60;;;;;;10404077;28;20264;-77
2021/11/10 14:28:01;;;;;;;11.50;9.73;;;11.90;40.80;;;;;;10408891;28;20237;-78
2021/11/10 14:33:04;;;;;;;11.93;10.77;;;11.90;40.80;;;;;;10411315;28;20236;-77
2021/11/10 14:38:11;;;;;;;12.27;10.97;;;11.90;40.60;;;;;;10406670;28;20607;-77
2021/11/10 14:43:25;;;;;;;11.97;10.87;;;11.90;40.70;;;;;;10407590;28;20236;-77
2021/11/10 14:48:32;;;;;;;11.70;10.50;;;11.90;40.80;;;;;;10408311;28;20780;-77
2021/11/10 14:53:40;;;;;;;10.40;9.50;;;11.90;40.60;;;;;;10410978;28;20229;-77
2021/11/10 14:58:53;;;;;;;10.50;9.40;;;11.80;40.60;;;;;;10410566;28;20239;-77
2021/11/10 15:04:23;;;;;;;11.07;9.97;;;11.80;40.80;;;;;;10390161;28;20234;-77
2021/11/10 15:09:28;;;;;;;10.27;9.17;;;11.80;40.40;;;;;;10395547;28;20229;-77
2021/11/10 15:14:36;;;;;;;8.83;7.93;;;11.70;41.00;;;;;;10409774;28;20240;-77
2021/11/10 15:19:40;;;;;;;10.03;9.03;;;11.70;40.90;;;;;;10390748;28;20373;-77
2021/11/10 15:24:45;;;;;;;12.57;10.97;;;11.70;40.60;;;;;;10396258;28;20287;-77
2021/11/10 15:29:50;;;;;;;11.30;10.20;;;11.70;40.40;;;;;;10409310;28;20239;-77
2021/11/10 15:34:54;;;;;;;14.53;12.50;;;11.60;40.40;;;;;;10408889;28;20236;-77
2021/11/10 15:39:58;;;;;;;12.03;10.83;;;11.60;40.30;;;;;;10397465;28;20248;-77
2021/11/10 15:45:02;;;;;;;13.07;11.87;;;11.50;41.30;;;;;;10367916;28;20246;-77
2021/11/10 15:50:05;;;;;;;11.87;10.70;;;11.50;41.00;;;;;;10367295;28;20230;-77
2021/11/10 15:55:12;;;;;;;10.97;9.10;;;11.60;40.90;;;;;;10379962;28;20324;-77
2021/11/10 16:00:20;;;;;;;10.40;9.40;;;11.50;40.40;;;;;;10398511;28;20320;-77
2021/11/10 16:05:44;;;;;;;9.87;8.87;;;11.50;40.40;;;;;;10404629;28;20226;-77
2021/11/10 16:10:51;;;;;;;7.50;6.80;;;11.40;40.30;;;;;;10379382;28;20268;-77
2021/11/10 16:15:56;;;;;;;8.33;7.50;;;11.40;41.20;;;;;;10406421;28;20230;-76
2021/11/10 16:21:01;;;;;;;8.57;7.77;;;11.30;41.10;;;;;;10409766;28;20313;-76
2021/11/10 16:26:06;;;;;;;10.40;9.40;;;11.30;40.50;;;;;;10409158;28;20240;-76
2021/11/10 16:31:23;;;;;;;12.33;10.37;;;11.30;40.30;;;;;;10410574;28;20234;-78
2021/11/10 16:36:27;;;;;;;12.70;11.50;;;11.20;40.20;;;;;;10412132;28;20627;-79
2021/11/10 16:41:31;;;;;;;17.00;15.30;;;11.20;40.30;;;;;;10414887;28;20241;-77
2021/11/10 16:46:34;;;;;;;18.33;16.53;;;11.10;40.40;;;;;;10418761;28;20916;-78
2021/11/10 16:51:49;;;;;;;20.07;16.37;;;11.10;40.30;;;;;;10399413;28;20915;-78
2021/11/10 16:56:54;;;;;;;19.13;15.73;;;11.00;40.40;;;;;;10401027;28;20240;-77
2021/11/10 17:01:57;;;;;;;15.73;14.10;;;11.00;40.20;;;;;;10406371;28;20229;-78
2021/11/10 17:07:00;;;;;;;15.43;13.73;;;10.90;40.10;;;;;;10401751;28;20229;-79
2021/11/10 17:12:05;;;;;;;16.00;14.30;;;10.90;39.90;;;;;;10411644;28;20260;-78
2021/11/10 17:17:09;;;;;;;17.90;15.23;;;10.90;40.00;;;;;;10392726;28;20301;-78
2021/11/10 17:22:12;;;;;;;19.10;15.77;;;10.80;40.00;;;;;;10405251;28;20225;-78
2021/11/10 17:27:17;;;;;;;15.10;13.60;;;10.80;40.10;;;;;;10404613;28;20225;-78
2021/11/10 17:32:20;;;;;;;12.57;11.30;;;10.80;39.90;;;;;;10398217;28;20234;-78
2021/11/10 17:37:24;;;;;;;15.87;14.20;;;10.70;39.80;;;;;;10406371;28;20221;-78
2021/11/10 17:42:29;;;;;;;20.23;18.33;;;10.60;39.70;;;;;;10404676;28;21110;-78
2021/11/10 17:47:33;;;;;;;18.23;16.37;;;10.60;39.40;;;;;;10407329;28;20249;-77
2021/11/10 17:52:37;;;;;;;16.33;14.87;;;10.40;40.30;;;;;;10393747;28;20243;-78
2021/11/10 17:57:42;;;;;;;15.67;14.17;;;10.30;40.10;;;;;;10405558;28;20650;-78
2021/11/10 18:02:45;;;;;;;17.47;15.87;;;10.20;40.10;;;;;;10397117;28;20293;-77
2021/11/10 18:07:49;;;;;;;18.80;16.93;;;10.20;40.20;;;;;;10414954;28;20657;-78
2021/11/10 18:12:54;;;;;;;17.00;15.27;;;10.20;40.00;;;;;;10410875;28;20237;-79
2021/11/10 18:17:57;;;;;;;17.13;15.43;;;10.10;39.80;;;;;;10388415;28;20230;-78
2021/11/10 18:23:01;;;;;;;21.97;18.93;;;10.00;39.90;;;;;;10412628;28;20707;-79
2021/11/10 18:28:05;;;;;;;16.97;15.37;;;10.00;39.90;;;;;;10401167;28;20229;-78
2021/11/10 18:33:08;;;;;;;18.07;16.27;;;10.00;39.90;;;;;;10393616;28;20225;-78
2021/11/10 18:38:12;;;;;;;16.37;13.57;;;10.00;39.90;;;;;;10398427;28;20253;-77
2021/11/10 18:43:16;;;;;;;22.97;20.80;;;10.00;39.90;;;;;;10390381;28;20226;-77
2021/11/10 18:48:21;;;;;;;19.60;17.73;;;9.90;40.80;;;;;;10395652;28;20642;-77
2021/11/10 18:53:26;;;;;;;27.63;20.27;;;9.90;40.80;;;;;;10387995;28;20619;-77
2021/11/10 18:58:36;;;;;;;18.73;16.70;;;9.80;40.70;;;;;;10396472;28;20226;-77
2021/11/10 19:03:44;;;;;;;17.93;15.83;;;9.80;40.70;;;;;;10397544;28;21308;-77
2021/11/10 19:08:53;;;;;;;15.23;13.77;;;9.70;40.60;;;;;;10395097;28;20665;-77
2021/11/10 19:19:39;;;;;;;16.33;14.63;;;9.60;40.50;;;;;;10384028;28;20261;-77
2021/11/10 19:24:45;;;;;;;15.40;13.80;;;9.60;40.50;;;;;;10394703;28;20234;-77
2021/11/10 19:29:50;;;;;;;14.47;13.10;;;9.60;40.50;;;;;;10388388;28;20244;-77
2021/11/10 19:34:53;;;;;;;16.27;14.57;;;9.50;40.50;;;;;;10402072;28;20221;-77
2021/11/10 19:39:56;;;;;;;17.30;13.73;;;9.50;40.50;;;;;;10388006;28;20240;-78
2021/11/10 19:45:01;;;;;;;17.80;15.73;;;9.50;40.50;;;;;;10397330;28;20233;-79
2021/11/10 19:50:07;;;;;;;17.60;15.53;;;9.40;40.40;;;;;;10417677;28;20233;-79
2021/11/10 19:55:14;;;;;;;17.97;16.07;;;9.30;40.30;;;;;;10419586;28;20230;-78
2021/11/10 20:00:24;;;;;;;16.93;14.50;;;9.30;40.30;;;;;;10393793;28;20829;-77
2021/11/10 20:05:29;;;;;;;18.93;16.67;;;9.20;40.20;;;;;;10373298;28;20321;-78
2021/11/10 20:10:34;;;;;;;18.10;16.20;;;9.20;40.20;;;;;;10375494;28;20234;-80
2021/11/10 20:15:39;;;;;;;18.90;15.50;;;9.10;40.10;;;;;;10398989;28;20297;-81
2021/11/10 20:20:43;;;;;;;18.40;15.87;;;9.00;40.10;;;;;;10408370;28;20340;-76
2021/11/10 20:25:47;;;;;;;17.70;15.90;;;9.00;40.10;;;;;;10399669;28;20214;-77
2021/11/10 20:30:51;;;;;;;14.70;13.20;;;8.90;40.00;;;;;;10406711;28;20230;-76
2021/11/10 20:35:55;;;;;;;17.47;14.83;;;8.80;39.90;;;;;;10408370;28;20229;-78
2021/11/10 20:40:58;;;;;;;14.73;13.13;;;8.80;39.90;;;;;;10402951;28;20325;-78
2021/11/10 20:46:03;;;;;;;14.63;12.37;;;8.70;39.80;;;;;;10397283;28;20730;-77
2021/11/10 20:51:07;;;;;;;11.17;9.93;;;8.70;40.00;;;;;;10384855;28;20603;-78
2021/11/10 20:56:13;;;;;;;13.03;11.73;;;8.70;40.10;;;;;;10406585;28;20297;-78
2021/11/10 21:01:17;;;;;;;13.80;12.33;;;8.70;40.00;;;;;;10399294;28;20772;-77
2021/11/10 21:06:21;;;;;;;13.27;12.03;;;8.60;39.70;;;;;;10385138;28;20321;-77
2021/11/10 21:11:24;;;;;;;13.13;11.53;;;8.60;39.70;;;;;;10396678;28;20233;-78
2021/11/10 21:16:29;;;;;;;13.67;12.33;;;8.60;39.70;;;;;;10387247;28;20585;-77
2021/11/10 21:21:33;;;;;;;14.10;12.70;;;8.50;39.70;;;;;;10384788;28;20234;-77
2021/11/10 21:26:36;;;;;;;13.23;11.93;;;8.50;39.70;;;;;;10388177;28;20233;-76
2021/11/10 21:31:42;;;;;;;12.60;11.30;;;8.40;39.60;;;;;;10394117;28;20244;-76
2021/11/10 21:36:45;;;;;;;13.70;12.40;;;8.30;39.50;;;;;;10386759;28;20710;-77
2021/11/10 21:41:48;;;;;;;12.30;11.03;;;8.30;39.50;;;;;;10393304;28;20236;-76
2021/11/10 21:46:55;;;;;;;14.03;12.53;;;8.20;39.40;;;;;;10402746;28;20599;-77
2021/11/10 21:51:59;;;;;;;17.07;14.10;;;8.10;39.30;;;;;;10398724;28;20279;-76
2021/11/10 21:57:04;;;;;;;16.13;14.50;;;8.10;39.30;;;;;;10402838;28;20685;-77
2021/11/10 22:02:10;;;;;;;15.47;13.77;;;8.00;39.60;;;;;;10378694;23;20236;-72
2021/11/10 22:07:16;;;;;;;12.73;11.60;;;8.00;39.60;;;;;;10358535;28;20350;-72
2021/11/10 22:12:19;;;;;;;14.10;12.77;;;7.90;39.70;;;;;;10351097;28;20229;-72
2021/11/10 22:17:24;;;;;;;14.27;12.93;;;7.90;39.70;;;;;;10345298;28;20254;-72
2021/11/10 22:22:27;;;;;;;11.80;10.60;;;7.80;39.70;;;;;;10344668;28;20231;-72
2021/11/10 22:27:31;;;;;;;16.43;14.83;;;7.80;39.80;;;;;;10357309;28;20236;-72
2021/11/10 22:32:35;;;;;;;15.37;13.90;;;7.80;39.80;;;;;;10354697;28;20233;-72
2021/11/10 22:37:39;;;;;;;15.03;13.43;;;7.70;40.00;;;;;;10350143;28;20230;-72
2021/11/10 22:42:43;;;;;;;16.83;14.73;;;7.70;40.00;;;;;;10352969;28;20584;-72
2021/11/10 22:47:47;;;;;;;21.27;15.63;;;7.70;40.00;;;;;;10357267;28;20812;-72
2021/11/10 22:52:51;;;;;;;22.43;15.03;;;7.70;40.30;;;;;;10340231;28;20311;-72
2021/11/10 22:57:54;;;;;;;64.67;16.93;;;7.60;40.20;;;;;;10338583;28;20223;-72
2021/11/10 23:03:00;;;;;;;32.40;16.00;;;7.60;40.30;;;;;;10337616;28;20226;-72
2021/11/10 23:08:04;;;;;;;15.10;12.30;;;7.60;40.20;;;;;;10379546;28;20993;-72
2021/11/10 23:13:10;;;;;;;15.73;11.73;;;7.50;40.20;;;;;;10382933;28;20226;-73
2021/11/10 23:18:15;;;;;;;26.20;14.33;;;7.40;40.30;;;;;;10376067;28;20226;-73
2021/11/10 23:23:18;;;;;;;67.33;17.10;;;7.40;40.20;;;;;;10383123;28;20804;-73
2021/11/10 23:28:22;;;;;;;17.77;14.60;;;7.20;40.20;;;;;;10381596;28;20237;-73
2021/11/10 23:33:27;;;;;;;22.03;14.63;;;7.20;40.30;;;;;;10373244;28;20233;-73
2021/11/10 23:38:30;;;;;;;31.33;15.73;;;7.10;40.70;;;;;;10378147;28;20306;-73
2021/11/10 23:43:33;;;;;;;22.33;14.43;;;7.10;40.80;;;;;;10377856;28;20234;-73
2021/11/10 23:48:38;;;;;;;18.33;15.07;;;7.10;40.90;;;;;;10380982;28;20502;-73
2021/11/10 23:53:41;;;;;;;22.07;15.23;;;7.10;41.00;;;;;;10380267;28;20222;-73
2021/11/10 23:58:44;;;;;;;15.93;13.80;;;7.10;40.80;;;;;;10383037;28;20234;-73
